createdAt,value
2024-04-06T00:00:16.774Z,92.87
2024-04-06T00:01:16.754Z,92.87
2024-04-06T00:02:16.812Z,92.72
2024-04-06T00:03:16.719Z,92.63
2024-04-06T00:04:16.718Z,92.52
2024-04-06T00:05:16.687Z,92.72
2024-04-06T00:06:16.702Z,92.83
2024-04-06T00:07:16.713Z,92.72
2024-04-06T00:08:18.076Z,93.13
2024-04-06T00:09:16.679Z,92.93
2024-04-06T00:10:16.671Z,92.72
2024-04-06T00:11:16.711Z,92.83
2024-04-06T00:12:16.674Z,92.93
2024-04-06T00:13:16.612Z,93.13
2024-04-06T00:14:16.689Z,93.03
2024-04-06T00:15:16.601Z,92.93
2024-04-06T00:16:16.607Z,93.24
2024-04-06T00:17:16.607Z,93.84
2024-04-06T00:18:16.555Z,93.95
2024-04-06T00:19:16.565Z,94.15
2024-04-06T00:20:16.529Z,94.05
2024-04-06T00:21:16.542Z,93.84
2024-04-06T00:22:16.490Z,93.74
2024-04-06T00:23:16.540Z,93.74
2024-04-06T00:24:16.481Z,93.74
2024-04-06T00:25:16.463Z,93.74
2024-04-06T00:26:16.500Z,93.74
2024-04-06T00:27:16.512Z,93.95
2024-04-06T00:28:16.470Z,94.05
2024-04-06T00:29:16.451Z,94.35
2024-04-06T00:30:16.524Z,94.35
2024-04-06T00:31:16.403Z,94.35
2024-04-06T00:32:16.399Z,94.09
2024-04-06T00:33:16.430Z,93.99
2024-04-06T00:34:16.399Z,93.89
2024-04-06T00:35:16.374Z,93.99
2024-04-06T00:36:16.372Z,94.40
2024-04-06T00:37:16.381Z,94.60
2024-04-06T00:38:16.383Z,94.60
2024-04-06T00:39:16.382Z,94.50
2024-04-06T00:40:16.336Z,94.60
2024-04-06T00:41:16.323Z,94.70
2024-04-06T00:42:16.329Z,94.70
2024-04-06T00:43:16.314Z,94.70
2024-04-06T00:44:16.261Z,94.60
2024-04-06T00:45:16.276Z,94.64
2024-04-06T00:46:16.299Z,94.74
2024-04-06T00:47:16.261Z,94.64
2024-04-06T00:48:16.274Z,94.54
2024-04-06T00:49:16.275Z,94.24
2024-04-06T00:50:16.216Z,94.24
2024-04-06T00:51:16.222Z,94.34
2024-04-06T00:52:16.226Z,94.44
2024-04-06T00:53:16.207Z,94.54
2024-04-06T00:54:16.220Z,94.64
2024-04-06T00:55:16.196Z,94.74
2024-04-06T00:56:16.196Z,94.74
2024-04-06T00:57:16.193Z,94.64
2024-04-06T00:58:16.141Z,94.44
2024-04-06T00:59:16.143Z,94.69
2024-04-06T01:00:16.110Z,94.79
2024-04-06T01:01:16.176Z,94.79
2024-04-06T01:02:16.083Z,95.09
2024-04-06T01:03:16.079Z,95.30
2024-04-06T01:04:16.090Z,95.40
2024-04-06T01:05:16.066Z,95.50
2024-04-06T01:06:16.063Z,95.70
2024-04-06T01:07:16.064Z,95.91
2024-04-06T01:08:16.067Z,95.91
2024-04-06T01:09:16.014Z,96.11
2024-04-06T01:10:15.979Z,96.31
2024-04-06T01:11:15.985Z,96.36
2024-04-06T01:12:15.981Z,96.36
2024-04-06T01:13:15.984Z,96.36
2024-04-06T01:14:15.996Z,96.15
2024-04-06T01:15:15.952Z,96.15
2024-04-06T01:16:15.940Z,96.15
2024-04-06T01:17:15.956Z,95.95
2024-04-06T01:18:15.910Z,95.85
2024-04-06T01:19:15.917Z,95.95
2024-04-06T01:20:15.912Z,95.85
2024-04-06T01:21:15.921Z,95.85
2024-04-06T01:22:15.861Z,95.85
2024-04-06T01:23:15.859Z,95.85
2024-04-06T01:24:15.876Z,95.85
2024-04-06T01:25:15.827Z,95.85
2024-04-06T01:26:15.819Z,95.85
2024-04-06T01:27:15.818Z,95.75
2024-04-06T01:28:15.827Z,95.95
2024-04-06T01:29:15.829Z,96.06
2024-04-06T01:30:15.841Z,96.06
2024-04-06T01:31:15.788Z,95.95
2024-04-06T01:32:15.797Z,96.00
2024-04-06T01:33:15.821Z,96.00
2024-04-06T01:34:15.769Z,95.90
2024-04-06T01:35:15.782Z,96.00
2024-04-06T01:36:15.894Z,96.10
2024-04-06T01:37:15.780Z,96.10
2024-04-06T01:38:15.777Z,96.00
2024-04-06T01:39:15.734Z,95.79
2024-04-06T01:40:15.706Z,95.90
2024-04-06T01:41:15.696Z,96.10
2024-04-06T01:42:15.647Z,96.00
2024-04-06T01:43:15.638Z,96.30
2024-04-06T01:44:15.635Z,96.51
2024-04-06T01:45:15.667Z,96.30
2024-04-06T01:46:15.628Z,96.30
2024-04-06T01:47:15.594Z,96.20
2024-04-06T01:48:15.593Z,96.41
2024-04-06T01:49:15.662Z,96.51
2024-04-06T01:50:15.697Z,96.61
2024-04-06T01:51:15.588Z,96.81
2024-04-06T01:52:15.591Z,97.02
2024-04-06T01:53:15.583Z,97.12
2024-04-06T01:54:15.571Z,97.22
2024-04-06T01:55:15.613Z,97.22
2024-04-06T01:56:15.568Z,97.12
2024-04-06T01:57:15.541Z,97.02
2024-04-06T01:58:15.467Z,96.92
2024-04-06T01:59:15.464Z,96.92
2024-04-06T02:00:15.499Z,96.71
2024-04-06T02:01:15.492Z,96.71
2024-04-06T02:02:15.476Z,96.71
2024-04-06T02:03:15.484Z,96.61
2024-04-06T02:04:15.772Z,96.71
2024-04-06T02:05:15.413Z,96.61
2024-04-06T02:06:15.413Z,96.61
2024-04-06T02:07:15.379Z,96.51
2024-04-06T02:08:15.415Z,96.51
2024-04-06T02:09:15.352Z,96.61
2024-04-06T02:10:15.387Z,96.61
2024-04-06T02:11:15.439Z,96.51
2024-04-06T02:12:15.381Z,96.51
2024-04-06T02:13:15.354Z,96.51
2024-04-06T02:14:15.318Z,96.61
2024-04-06T02:15:15.358Z,96.41
2024-04-06T02:16:15.296Z,96.51
2024-04-06T02:17:15.299Z,96.81
2024-04-06T02:18:15.281Z,96.92
2024-04-06T02:19:15.259Z,97.02
2024-04-06T02:20:15.235Z,97.12
2024-04-06T02:21:15.442Z,97.02
2024-04-06T02:22:15.232Z,96.92
2024-04-06T02:23:15.218Z,96.81
2024-04-06T02:24:15.231Z,96.61
2024-04-06T02:25:15.226Z,96.71
2024-04-06T02:26:15.254Z,96.86
2024-04-06T02:27:15.211Z,96.86
2024-04-06T02:28:15.187Z,97.06
2024-04-06T02:29:15.159Z,97.06
2024-04-06T02:30:15.162Z,96.86
2024-04-06T02:31:15.152Z,96.66
2024-04-06T02:32:15.208Z,96.66
2024-04-06T02:33:15.286Z,96.76
2024-04-06T02:34:15.167Z,96.55
2024-04-06T02:35:15.158Z,96.66
2024-04-06T02:36:15.100Z,96.76
2024-04-06T02:37:15.128Z,96.76
2024-04-06T02:38:15.095Z,96.96
2024-04-06T02:39:15.264Z,96.96
2024-04-06T02:40:15.019Z,96.76
2024-04-06T02:41:14.996Z,96.86
2024-04-06T02:42:15.008Z,96.96
2024-04-06T02:43:14.986Z,96.86
2024-04-06T02:44:14.971Z,96.76
2024-04-06T02:45:14.955Z,96.96
2024-04-06T02:46:14.954Z,96.86
2024-04-06T02:47:14.954Z,96.66
2024-04-06T02:48:14.937Z,96.45
2024-04-06T02:49:14.985Z,96.45
2024-04-06T02:50:14.973Z,96.55
2024-04-06T02:51:14.965Z,96.76
2024-04-06T02:52:14.977Z,96.66
2024-04-06T02:53:14.882Z,96.55
2024-04-06T02:54:14.881Z,96.45
2024-04-06T02:55:14.897Z,96.55
2024-04-06T02:56:15.136Z,96.55
2024-04-06T02:57:15.027Z,96.66
2024-04-06T02:58:14.834Z,96.45
2024-04-06T02:59:14.837Z,96.55
2024-04-06T03:00:14.838Z,96.76
2024-04-06T03:01:14.795Z,96.96
2024-04-06T03:02:14.847Z,96.96
2024-04-06T03:03:14.811Z,97.06
2024-04-06T03:04:14.794Z,97.06
2024-04-06T03:05:14.754Z,96.96
2024-04-06T03:06:14.791Z,96.86
2024-04-06T03:07:14.728Z,96.86
2024-04-06T03:08:14.763Z,97.06
2024-04-06T03:09:14.739Z,97.27
2024-04-06T03:10:14.695Z,97.47
2024-04-06T03:11:15.843Z,97.47
2024-04-06T03:12:14.735Z,97.37
2024-04-06T03:13:14.695Z,97.27
2024-04-06T03:14:14.699Z,97.27
2024-04-06T03:15:14.638Z,97.27
2024-04-06T03:16:14.680Z,97.27
2024-04-06T03:17:14.674Z,97.37
2024-04-06T03:18:14.625Z,97.37
2024-04-06T03:19:14.658Z,97.16
2024-04-06T03:20:14.614Z,96.96
2024-04-06T03:21:14.584Z,96.76
2024-04-06T03:22:14.579Z,96.76
2024-04-06T03:23:14.617Z,96.76
2024-04-06T03:24:14.546Z,96.86
2024-04-06T03:25:14.578Z,96.91
2024-04-06T03:26:14.542Z,96.91
2024-04-06T03:27:14.542Z,96.91
2024-04-06T03:28:14.527Z,96.70
2024-04-06T03:29:14.533Z,96.60
2024-04-06T03:30:14.506Z,96.70
2024-04-06T03:31:14.464Z,96.91
2024-04-06T03:32:14.470Z,96.91
2024-04-06T03:33:14.496Z,96.80
2024-04-06T03:34:14.476Z,96.80
2024-04-06T03:35:14.514Z,97.00
2024-04-06T03:36:14.455Z,97.11
2024-04-06T03:37:14.438Z,97.11
2024-04-06T03:38:14.406Z,97.31
2024-04-06T03:39:14.400Z,97.31
2024-04-06T03:40:14.397Z,97.41
2024-04-06T03:41:14.484Z,97.62
2024-04-06T03:42:14.372Z,97.62
2024-04-06T03:43:14.623Z,97.41
2024-04-06T03:44:14.421Z,97.41
2024-04-06T03:45:14.396Z,97.41
2024-04-06T03:46:14.552Z,97.52
2024-04-06T03:47:14.417Z,97.62
2024-04-06T03:48:14.468Z,97.52
2024-04-06T03:49:14.439Z,97.31
2024-04-06T03:50:13.381Z,97.21
2024-04-06T03:51:14.402Z,97.11
2024-04-06T03:52:14.340Z,96.91
2024-04-06T03:53:14.350Z,97.00
2024-04-06T03:54:14.374Z,97.11
2024-04-06T03:55:14.253Z,97.11
2024-04-06T03:56:14.258Z,97.00
2024-04-06T03:57:14.334Z,97.00
2024-04-06T03:58:14.244Z,97.11
2024-04-06T03:59:14.253Z,97.11
2024-04-06T04:00:14.248Z,97.00
2024-04-06T04:01:14.159Z,97.21
2024-04-06T04:02:14.186Z,97.31
2024-04-06T04:03:14.257Z,97.41
2024-04-06T04:04:14.423Z,97.41
2024-04-06T04:05:14.174Z,97.41
2024-04-06T04:06:14.158Z,97.41
2024-04-06T04:07:14.107Z,97.52
2024-04-06T04:08:14.606Z,97.72
2024-04-06T04:09:14.111Z,97.72
2024-04-06T04:10:14.105Z,97.62
2024-04-06T04:11:14.139Z,97.72
2024-04-06T04:12:14.280Z,97.62
2024-04-06T04:13:14.090Z,97.52
2024-04-06T04:14:14.109Z,97.56
2024-04-06T04:15:14.073Z,97.66
2024-04-06T04:16:14.215Z,97.66
2024-04-06T04:17:14.222Z,97.66
2024-04-06T04:18:14.023Z,97.46
2024-04-06T04:19:14.107Z,97.25
2024-04-06T04:20:14.095Z,97.25
2024-04-06T04:21:14.051Z,97.25
2024-04-06T04:22:13.946Z,97.25
2024-04-06T04:23:14.044Z,97.36
2024-04-06T04:24:14.052Z,97.36
2024-04-06T04:25:14.050Z,97.46
2024-04-06T04:26:14.015Z,97.56
2024-04-06T04:27:13.997Z,97.66
2024-04-06T04:28:13.934Z,97.46
2024-04-06T04:29:13.963Z,97.56
2024-04-06T04:30:13.974Z,97.56
2024-04-06T04:31:13.967Z,97.56
2024-04-06T04:32:13.903Z,97.46
2024-04-06T04:33:13.830Z,97.36
2024-04-06T04:34:16.170Z,97.36
2024-04-06T04:35:13.828Z,97.36
2024-04-06T04:36:13.854Z,97.36
2024-04-06T04:37:13.904Z,97.25
2024-04-06T04:38:13.892Z,97.40
2024-04-06T04:39:13.850Z,97.40
2024-04-06T04:40:13.847Z,97.50
2024-04-06T04:41:13.879Z,97.61
2024-04-06T04:42:13.844Z,97.50
2024-04-06T04:43:13.826Z,97.50
2024-04-06T04:44:30.183Z,97.46
2024-04-06T04:45:13.795Z,97.66
2024-04-06T04:46:13.755Z,97.77
2024-04-06T04:47:13.826Z,97.91
2024-04-06T04:48:13.670Z,97.91
2024-04-06T04:49:13.776Z,97.91
2024-04-06T04:50:13.674Z,97.77
2024-04-06T04:51:13.638Z,97.77
2024-04-06T04:52:13.644Z,97.91
2024-04-06T04:53:13.607Z,97.87
2024-04-06T04:54:14.587Z,97.77
2024-04-06T04:55:13.616Z,97.66
2024-04-06T04:56:13.570Z,97.46
2024-04-06T04:57:13.594Z,97.56
2024-04-06T04:58:13.537Z,97.66
2024-04-06T04:59:13.539Z,97.56
2024-04-06T05:00:13.561Z,97.66
2024-04-06T05:01:13.524Z,97.56
2024-04-06T05:02:13.602Z,97.36
2024-04-06T05:03:13.717Z,97.25
2024-04-06T05:04:13.481Z,97.40
2024-04-06T05:05:13.475Z,97.36
2024-04-06T05:06:13.734Z,97.36
2024-04-06T05:07:13.438Z,97.50
2024-04-06T05:08:13.425Z,97.56
2024-04-06T05:09:13.424Z,97.56
2024-04-06T05:10:13.410Z,97.56
2024-04-06T05:11:13.428Z,97.66
2024-04-06T05:12:13.383Z,97.66
2024-04-06T05:13:13.367Z,97.77
2024-04-06T05:14:13.352Z,97.77
2024-04-06T05:15:14.987Z,97.66
2024-04-06T05:16:13.403Z,97.66
2024-04-06T05:17:13.336Z,97.66
2024-04-06T05:18:13.310Z,97.66
2024-04-06T05:19:13.468Z,97.77
2024-04-06T05:20:13.307Z,97.77
2024-04-06T05:21:13.306Z,97.66
2024-04-06T05:22:13.280Z,97.62
2024-04-06T05:23:13.264Z,97.41
2024-04-06T05:24:13.257Z,97.41
2024-04-06T05:25:13.243Z,97.41
2024-04-06T05:26:13.259Z,97.31
2024-04-06T05:27:13.227Z,97.21
2024-04-06T05:28:13.231Z,97.21
2024-04-06T05:29:13.197Z,96.96
2024-04-06T05:30:13.193Z,96.86
2024-04-06T05:31:13.202Z,96.96
2024-04-06T05:32:13.190Z,96.96
2024-04-06T05:33:13.188Z,96.76
2024-04-06T05:34:13.153Z,96.45
2024-04-06T05:35:13.134Z,96.25
2024-04-06T05:36:13.246Z,95.90
2024-04-06T05:37:13.134Z,95.79
2024-04-06T05:38:13.196Z,95.79
2024-04-06T05:39:13.085Z,95.79
2024-04-06T05:40:13.103Z,95.59
2024-04-06T05:41:13.107Z,95.49
2024-04-06T05:42:13.068Z,95.49
2024-04-06T05:43:13.073Z,95.29
2024-04-06T05:44:13.052Z,95.14
2024-04-06T05:45:13.044Z,95.04
2024-04-06T05:46:13.044Z,95.04
2024-04-06T05:47:13.017Z,95.14
2024-04-06T05:48:13.004Z,95.24
2024-04-06T05:49:12.988Z,95.24
2024-04-06T05:50:12.986Z,95.04
2024-04-06T05:51:12.986Z,94.93
2024-04-06T05:52:12.977Z,94.93
2024-04-06T05:53:12.937Z,94.79
2024-04-06T05:54:12.946Z,94.59
2024-04-06T05:55:12.914Z,94.48
2024-04-06T05:56:12.934Z,94.38
2024-04-06T05:57:12.902Z,94.38
2024-04-06T05:58:12.943Z,94.38
2024-04-06T05:59:12.889Z,94.18
2024-04-06T06:00:12.873Z,93.98
2024-04-06T06:01:12.864Z,93.67
2024-04-06T06:02:12.863Z,93.47
2024-04-06T06:03:12.843Z,93.26
2024-04-06T06:04:12.825Z,93.16
2024-04-06T06:05:14.089Z,92.91
2024-04-06T06:06:12.814Z,92.71
2024-04-06T06:07:12.802Z,92.82
2024-04-06T06:08:12.772Z,93.02
2024-04-06T06:09:12.764Z,92.91
2024-04-06T06:10:12.777Z,92.82
2024-04-06T06:11:12.772Z,92.82
2024-04-06T06:12:12.731Z,92.61
2024-04-06T06:13:12.737Z,92.30
2024-04-06T06:14:12.751Z,92.21
2024-04-06T06:15:12.708Z,92.16
2024-04-06T06:16:12.719Z,91.45
2024-04-06T06:17:12.698Z,91.25
2024-04-06T06:18:12.689Z,91.55
2024-04-06T06:19:12.675Z,91.55
2024-04-06T06:20:12.660Z,91.25
2024-04-06T06:21:12.672Z,90.94
2024-04-06T06:22:12.640Z,90.74
2024-04-06T06:23:12.635Z,90.94
2024-04-06T06:24:12.614Z,90.84
2024-04-06T06:25:12.610Z,90.74
2024-04-06T06:26:12.716Z,90.19
2024-04-06T06:27:12.580Z,89.48
2024-04-06T06:28:12.578Z,89.68
2024-04-06T06:29:12.601Z,90.29
2024-04-06T06:30:12.535Z,90.39
2024-04-06T06:31:12.587Z,90.39
2024-04-06T06:32:12.521Z,90.49
2024-04-06T06:33:12.514Z,89.98
2024-04-06T06:34:12.514Z,89.43
2024-04-06T06:35:12.516Z,89.13
2024-04-06T06:38:12.465Z,89.13
2024-04-06T06:41:12.691Z,88.93
2024-04-06T06:42:12.454Z,88.93
2024-04-06T06:43:12.430Z,88.78
2024-04-06T06:44:12.391Z,88.28
2024-04-06T06:45:12.389Z,88.48
2024-04-06T06:46:12.396Z,88.58
2024-04-06T06:47:12.359Z,88.68
2024-04-06T06:48:12.347Z,88.58
2024-04-06T06:49:12.351Z,87.87
2024-04-06T06:50:12.338Z,87.73
2024-04-06T06:51:12.334Z,87.73
2024-04-06T06:52:12.322Z,87.73
2024-04-06T06:53:12.310Z,88.03
2024-04-06T06:54:12.292Z,87.73
2024-04-06T06:55:12.402Z,87.73
2024-04-06T06:56:12.302Z,87.52
2024-04-06T06:57:12.265Z,87.93
2024-04-06T06:58:12.255Z,87.93
2024-04-06T06:59:12.245Z,87.83
2024-04-06T07:01:12.296Z,87.73
2024-04-06T07:02:12.198Z,87.79
2024-04-06T07:03:12.202Z,87.18
2024-04-06T07:04:12.209Z,86.57
2024-04-06T07:05:12.183Z,86.68
2024-04-06T07:06:12.175Z,86.68
2024-04-06T07:07:12.373Z,86.88
2024-04-06T07:08:12.147Z,86.98
2024-04-06T07:09:12.132Z,87.08
2024-04-06T07:10:12.132Z,86.88
2024-04-06T07:11:12.108Z,85.82
2024-04-06T07:12:12.112Z,85.72
2024-04-06T07:13:12.128Z,86.43
2024-04-06T07:14:12.073Z,86.73
2024-04-06T07:15:12.056Z,86.63
2024-04-06T07:16:12.089Z,86.83
2024-04-06T07:17:12.080Z,87.24
2024-04-06T07:18:12.037Z,87.24
2024-04-06T07:19:12.131Z,87.14
2024-04-06T07:20:12.031Z,86.90
2024-04-06T07:21:12.005Z,86.79
2024-04-06T07:22:12.051Z,86.49
2024-04-06T07:23:11.973Z,85.58
2024-04-06T07:24:11.959Z,85.99
2024-04-06T07:25:12.027Z,86.08
2024-04-06T07:26:11.951Z,86.79
2024-04-06T07:27:11.944Z,86.65
2024-04-06T07:28:11.979Z,87.05
2024-04-06T07:29:11.908Z,86.65
2024-04-06T07:30:11.928Z,86.05
2024-04-06T07:31:11.912Z,84.93
2024-04-06T07:32:11.898Z,85.03
2024-04-06T07:33:11.858Z,84.33
2024-04-06T07:34:11.873Z,84.22
2024-04-06T07:35:11.846Z,84.22
2024-04-06T07:36:11.841Z,84.22
2024-04-06T07:37:11.885Z,84.89
2024-04-06T07:38:14.441Z,83.37
2024-04-06T07:40:11.826Z,82.26
2024-04-06T07:41:11.791Z,82.67
2024-04-06T07:42:11.792Z,83.68
2024-04-06T07:43:11.786Z,83.94
2024-04-06T07:44:11.744Z,82.62
2024-04-06T07:45:11.741Z,81.51
2024-04-06T07:46:11.812Z,81.37
2024-04-06T07:47:11.726Z,82.18
2024-04-06T07:48:11.708Z,81.88
2024-04-06T07:49:11.728Z,82.55
2024-04-06T07:50:11.695Z,80.66
2024-04-06T07:51:11.692Z,81.48
2024-04-06T07:52:11.760Z,80.77
2024-04-06T07:53:11.651Z,79.96
2024-04-06T07:54:11.631Z,80.66
2024-04-06T07:55:11.700Z,81.37
2024-04-06T07:56:11.716Z,80.77
2024-04-06T07:57:11.624Z,80.66
2024-04-06T07:58:11.960Z,81.13
2024-04-06T08:06:19.894Z,80.99
2024-04-06T08:07:20.881Z,80.29
2024-04-06T08:08:20.860Z,81.05
2024-04-06T08:09:20.512Z,81.05
2024-04-06T08:10:20.490Z,81.46
2024-04-06T08:11:20.516Z,81.26
2024-04-06T08:12:20.621Z,80.25
2024-04-06T08:13:20.459Z,80.21
2024-04-06T08:15:47.323Z,79.21
2024-04-06T08:16:48.298Z,79.41
2024-04-06T08:17:48.274Z,78.16
2024-04-06T08:18:48.232Z,76.75
2024-04-06T08:19:48.227Z,77.35
2024-04-06T08:20:48.216Z,77.86
2024-04-06T08:21:48.180Z,76.95
2024-04-06T08:22:48.170Z,76.44
2024-04-06T08:23:48.136Z,77.11
2024-04-06T08:24:48.152Z,77.42
2024-04-06T08:27:16.707Z,77.21
2024-04-06T08:29:35.659Z,77.38
2024-04-06T08:30:36.658Z,75.67
2024-04-06T08:31:36.953Z,75.13
2024-04-06T08:32:36.591Z,74.82
2024-04-06T08:33:36.554Z,74.32
2024-04-06T08:34:36.534Z,74.42
2024-04-06T08:35:36.554Z,75.13
2024-04-06T08:36:36.600Z,75.02
2024-04-06T08:37:36.511Z,74.52
2024-04-06T08:38:36.531Z,74.12
2024-04-06T08:39:36.515Z,74.02
2024-04-06T08:40:36.537Z,74.12
2024-04-06T08:41:36.561Z,72.77
2024-04-06T08:44:39.987Z,73.28
2024-04-06T08:45:41.135Z,73.38
2024-04-06T08:46:41.041Z,72.24
2024-04-06T08:47:40.931Z,73.35
2024-04-06T08:48:40.820Z,72.74
2024-04-06T08:49:40.822Z,73.24
2024-04-06T08:50:40.827Z,73.04
2024-04-06T08:51:40.826Z,73.75
2024-04-06T09:05:48.301Z,72.61
2024-04-06T09:06:49.253Z,72.00
2024-04-06T09:07:49.189Z,72.27
2024-04-06T09:08:49.083Z,72.37
2024-04-06T09:09:49.074Z,72.67
2024-04-06T09:10:49.176Z,72.53
2024-04-06T09:11:49.108Z,70.43
2024-04-06T09:12:51.336Z,71.83
2024-04-06T09:18:23.174Z,69.19
2024-04-06T09:20:50.077Z,68.38
2024-04-06T09:25:29.009Z,69.66
2024-04-06T09:26:29.034Z,70.06
2024-04-06T09:27:29.047Z,69.02
2024-04-06T09:28:29.063Z,68.02
2024-04-06T09:29:28.944Z,68.12
2024-04-06T09:30:28.929Z,67.52
2024-04-06T09:31:28.921Z,68.62
2024-04-06T09:32:28.917Z,69.35
2024-04-06T09:33:28.940Z,69.35
2024-04-06T09:34:28.926Z,68.85
2024-04-06T09:35:28.877Z,69.66
2024-04-06T09:36:28.883Z,70.70
2024-04-06T09:38:55.718Z,69.72
2024-04-06T09:39:56.830Z,70.32
2024-04-06T09:40:56.663Z,70.03
2024-04-06T09:41:56.630Z,69.85
2024-04-06T09:42:56.629Z,70.86
2024-04-06T09:43:56.606Z,70.46
2024-04-06T09:44:56.603Z,71.06
2024-04-06T09:45:56.583Z,71.40
2024-04-06T09:46:56.575Z,71.50
2024-04-06T09:47:56.598Z,70.79
2024-04-06T09:48:56.583Z,71.09
2024-04-06T09:49:56.536Z,72.50
2024-04-06T09:50:56.533Z,71.73
2024-04-06T09:51:56.512Z,71.13
2024-04-06T09:52:56.538Z,71.63
2024-04-06T09:53:56.515Z,71.73
2024-04-06T09:54:56.483Z,71.09
2024-04-06T09:55:56.476Z,71.23
2024-04-06T09:56:56.486Z,71.63
2024-04-06T09:57:56.468Z,72.24
2024-04-06T09:58:56.448Z,72.54
2024-04-06T09:59:58.181Z,72.24
2024-04-06T10:00:56.419Z,72.24
2024-04-06T10:01:56.414Z,72.94
2024-04-06T10:02:56.403Z,71.80
2024-04-06T10:03:56.380Z,72.54
2024-04-06T10:04:56.392Z,72.91
2024-04-06T10:05:56.369Z,72.61
2024-04-06T10:06:56.347Z,73.21
2024-04-06T10:07:56.382Z,70.96
2024-04-06T10:08:56.336Z,70.86
2024-04-06T10:09:56.342Z,70.63
2024-04-06T10:10:56.320Z,70.96
2024-04-06T10:11:56.356Z,70.66
2024-04-06T10:12:56.616Z,71.06
2024-04-06T10:13:56.532Z,70.36
2024-04-06T10:14:56.288Z,70.96
2024-04-06T10:15:56.267Z,70.06
2024-04-06T10:16:56.234Z,69.96
2024-04-06T10:17:56.268Z,70.36
2024-04-06T10:18:56.236Z,70.96
2024-04-06T10:19:58.896Z,69.79
2024-04-06T10:20:56.218Z,70.50
2024-04-06T10:21:56.199Z,70.50
2024-04-06T10:22:56.186Z,70.56
2024-04-06T10:23:56.190Z,70.26
2024-04-06T10:24:56.188Z,70.76
2024-04-06T10:25:59.037Z,70.26
2024-04-06T10:26:56.141Z,69.12
2024-04-06T10:27:56.154Z,69.52
2024-04-06T10:28:56.128Z,69.79
2024-04-06T10:29:56.109Z,70.39
2024-04-06T10:30:56.090Z,69.49
2024-04-06T10:31:56.105Z,68.68
2024-04-06T10:32:56.096Z,68.88
2024-04-06T10:33:56.054Z,69.19
2024-04-06T10:34:56.058Z,69.09
2024-04-06T10:35:56.054Z,68.18
2024-04-06T10:36:57.759Z,68.59
2024-04-06T10:37:56.311Z,68.25
2024-04-06T10:38:56.221Z,68.05
2024-04-06T10:39:56.129Z,67.52
2024-04-06T10:40:56.003Z,66.61
2024-04-06T10:41:55.978Z,67.22
2024-04-06T10:42:56.204Z,68.42
2024-04-06T10:43:56.234Z,68.42
2024-04-06T10:44:55.952Z,67.22
2024-04-06T10:45:56.991Z,65.91
2024-04-06T10:46:56.041Z,66.31
2024-04-06T10:47:55.968Z,66.48
2024-04-06T10:48:55.899Z,66.18
2024-04-06T10:49:55.879Z,65.88
2024-04-06T10:50:56.041Z,65.58
2024-04-06T10:51:55.871Z,65.08
2024-04-06T10:52:55.854Z,65.48
2024-04-06T10:53:55.883Z,65.15
2024-04-06T10:54:55.847Z,64.45
2024-04-06T10:55:55.817Z,63.61
2024-04-06T10:56:55.838Z,62.84
2024-04-06T10:57:55.805Z,64.15
2024-04-06T10:58:55.847Z,64.75
2024-04-06T10:59:55.766Z,64.62
2024-04-06T11:00:55.795Z,64.92
2024-04-06T11:01:56.720Z,65.19
2024-04-06T11:02:55.743Z,64.39
2024-04-06T11:03:55.749Z,63.98
2024-04-06T11:04:59.885Z,64.42
2024-04-06T11:05:55.724Z,63.61
2024-04-06T11:07:10.653Z,63.58
2024-04-06T11:07:56.308Z,63.28
2024-04-06T11:08:55.952Z,63.68
2024-04-06T11:09:55.713Z,64.01
2024-04-06T11:10:56.920Z,64.42
2024-04-06T11:11:56.629Z,65.01
2024-04-06T11:12:55.811Z,65.12
2024-04-06T11:14:09.014Z,65.01
2024-04-06T11:14:56.041Z,64.42
2024-04-06T11:15:55.715Z,63.98
2024-04-06T11:18:47.037Z,62.78
2024-04-06T11:19:48.523Z,62.28
2024-04-06T11:20:46.623Z,63.68
2024-04-06T11:21:47.158Z,62.65
2024-04-06T11:22:47.257Z,61.95
2024-04-06T11:23:46.887Z,60.65
2024-04-06T11:24:46.795Z,59.45
2024-04-06T11:25:46.440Z,60.05
2024-04-06T11:28:03.854Z,60.12
2024-04-06T11:29:04.568Z,60.12
2024-04-06T11:30:16.511Z,58.52
2024-04-06T11:31:04.533Z,59.22
2024-04-06T11:32:04.526Z,60.52
2024-04-06T11:33:04.657Z,60.49
2024-04-06T11:34:05.628Z,61.19
2024-04-06T11:35:05.306Z,60.79
2024-04-06T11:36:04.576Z,60.39
2024-04-06T11:37:05.059Z,59.09
2024-04-06T11:38:04.529Z,60.69
2024-04-06T11:39:04.326Z,59.97
2024-04-06T11:40:04.348Z,60.36
2024-04-06T11:41:04.647Z,60.16
2024-04-06T11:42:04.841Z,59.77
2024-04-06T11:43:04.992Z,59.47
2024-04-06T11:44:05.116Z,59.36
2024-04-06T11:45:08.422Z,59.06
2024-04-06T11:46:05.715Z,58.47
2024-04-06T11:47:05.337Z,58.56
2024-04-06T11:48:05.540Z,58.37
2024-04-06T11:49:09.847Z,59.09
2024-04-06T11:50:04.874Z,58.59
2024-04-06T11:51:05.238Z,58.89
2024-04-06T11:52:04.928Z,58.99
2024-04-06T11:53:04.797Z,58.72
2024-04-06T11:54:07.964Z,58.99
2024-04-06T11:55:08.361Z,59.19
2024-04-06T11:56:05.653Z,60.62
2024-04-06T11:57:05.166Z,59.82
2024-04-06T11:58:06.650Z,59.49
2024-04-06T11:59:08.294Z,59.30
2024-04-06T12:00:04.569Z,58.92
2024-04-06T12:01:04.978Z,59.92
2024-04-06T12:02:08.150Z,60.72
2024-04-06T12:03:04.827Z,60.22
2024-04-06T12:04:06.386Z,61.32
2024-04-06T12:05:05.064Z,59.62
2024-04-06T12:06:04.884Z,59.59
2024-04-06T12:07:04.670Z,59.69
2024-04-06T12:08:04.877Z,59.52
2024-04-06T12:09:07.538Z,60.82
2024-04-06T12:10:06.362Z,59.89
2024-04-06T12:11:06.301Z,60.19
2024-04-06T12:12:05.527Z,59.59
2024-04-06T12:13:04.984Z,59.89
2024-04-06T12:14:09.042Z,58.69
2024-04-06T12:15:06.156Z,58.19
2024-04-06T12:16:06.840Z,58.49
2024-04-06T12:17:05.090Z,57.59
2024-04-06T12:18:05.093Z,58.37
2024-04-06T12:19:07.522Z,57.57
2024-04-06T12:20:05.076Z,57.97
2024-04-06T12:21:16.386Z,59.77
2024-04-06T12:22:19.204Z,59.06
2024-04-06T12:23:11.050Z,58.56
2024-04-06T12:24:06.349Z,59.06
2024-04-06T12:25:09.079Z,58.06
2024-04-06T12:26:07.008Z,58.86
2024-04-06T12:27:05.190Z,56.57
2024-04-06T12:28:06.137Z,56.46
2024-04-06T12:29:51.402Z,57.07
2024-04-06T12:30:05.276Z,55.64
2024-04-06T12:31:10.294Z,55.97
2024-04-06T12:32:04.097Z,56.07
2024-04-06T12:33:05.424Z,56.57
2024-04-06T12:34:17.038Z,57.14
2024-04-06T12:35:05.570Z,55.64
2024-04-06T12:36:04.439Z,56.44
2024-04-06T12:37:04.776Z,57.34
2024-04-06T14:03:07.455Z,54.81
2024-04-06T14:04:08.459Z,54.51
2024-04-06T14:05:08.347Z,53.02
2024-04-06T14:06:08.263Z,54.21
2024-04-06T14:07:08.275Z,53.52
2024-04-06T14:08:08.261Z,54.11
2024-04-06T14:09:08.251Z,54.21
2024-04-06T14:10:08.208Z,54.81
2024-04-06T14:11:08.211Z,53.22
2024-04-06T14:12:08.205Z,53.31
2024-04-06T14:13:08.176Z,53.31
2024-04-06T14:14:08.201Z,54.71
2024-04-06T14:15:08.192Z,54.31
2024-04-06T14:16:08.167Z,54.71
2024-04-06T14:17:08.229Z,55.01
2024-04-06T14:18:08.134Z,55.51
2024-04-06T14:19:08.158Z,55.80
2024-04-06T14:20:08.148Z,55.11
2024-04-06T14:21:08.131Z,55.31
2024-04-06T14:22:08.099Z,54.51
2024-04-06T14:23:08.154Z,54.71
2024-04-06T14:24:08.102Z,54.24
2024-04-06T14:25:08.077Z,54.53
2024-04-06T14:26:08.032Z,55.54
2024-04-06T14:27:08.034Z,55.63
2024-04-06T14:28:08.208Z,54.83
2024-04-06T14:29:08.007Z,55.24
2024-04-06T14:30:08.043Z,55.33
2024-04-06T14:31:08.040Z,55.73
2024-04-06T14:32:08.006Z,54.53
2024-04-06T14:33:07.986Z,54.53
2024-04-06T14:34:08.033Z,53.94
2024-04-06T14:35:17.742Z,54.83
2024-04-06T14:36:08.015Z,55.93
2024-04-06T14:37:07.964Z,55.04
2024-04-06T14:38:07.927Z,54.83
2024-04-06T14:39:08.009Z,54.14
2024-04-06T14:40:07.955Z,54.44
2024-04-06T14:41:07.915Z,55.04
2024-04-06T14:42:07.918Z,56.13
2024-04-06T14:43:07.978Z,55.73
2024-04-06T14:44:07.922Z,55.33
2024-04-06T14:45:07.918Z,55.13
2024-04-06T14:46:07.849Z,54.74
2024-04-06T14:47:07.799Z,55.04
2024-04-06T14:48:07.817Z,54.14
2024-04-06T14:49:07.793Z,53.84
2024-04-06T14:50:07.810Z,53.94
2024-04-06T14:51:07.760Z,53.64
2024-04-06T14:52:07.763Z,54.34
2024-04-06T14:53:07.739Z,54.76
2024-04-06T14:54:07.756Z,54.96
2024-04-06T14:55:07.740Z,55.26
2024-04-06T14:56:07.728Z,55.46
2024-04-06T14:57:07.713Z,54.57
2024-04-06T14:58:07.745Z,54.46
2024-04-06T14:59:07.715Z,54.66
2024-04-06T15:00:07.704Z,55.06
2024-04-06T15:01:07.670Z,55.16
2024-04-06T15:02:07.650Z,55.36
2024-04-06T15:03:07.616Z,54.96
2024-04-06T15:04:07.623Z,55.06